createdAt,value
2018-10-11T00:00:15.133Z,18.80
2018-10-11T00:03:40.169Z,21.10
2018-10-11T00:07:19.821Z,19.23
2018-10-11T00:10:44.036Z,20.40
2018-10-11T00:14:07.361Z,18.80
2018-10-11T00:17:34.118Z,19.43
2018-10-11T00:20:58.746Z,19.27
2018-10-11T00:24:27.993Z,17.83
2018-10-11T00:27:51.207Z,20.60
2018-10-11T00:31:15.328Z,21.40
2018-10-11T00:34:38.453Z,19.30
2018-10-11T00:38:01.654Z,19.27
2018-10-11T00:41:24.743Z,21.77
2018-10-11T00:44:47.835Z,21.37
2018-10-11T00:48:11.367Z,20.73
2018-10-11T00:51:34.791Z,20.77
2018-10-11T00:54:58.980Z,19.47
2018-10-11T00:58:22.408Z,19.53
2018-10-11T01:01:46.653Z,19.63
2018-10-11T01:05:09.717Z,20.00
2018-10-11T01:08:33.041Z,22.13
2018-10-11T01:11:56.352Z,21.10
2018-10-11T01:15:19.483Z,21.47
2018-10-11T01:18:42.568Z,20.20
2018-10-11T01:22:05.772Z,19.00
2018-10-11T01:25:28.867Z,22.10
2018-10-11T01:28:52.905Z,20.67
2018-10-11T01:32:16.154Z,20.93
2018-10-11T01:35:40.277Z,21.10
2018-10-11T01:39:05.605Z,21.43
2018-10-11T01:42:28.893Z,19.47
2018-10-11T01:45:52.515Z,18.77
2018-10-11T01:49:15.762Z,20.00
2018-10-11T01:52:38.720Z,20.63
2018-10-11T01:56:01.995Z,20.47
2018-10-11T02:02:58.140Z,21.87
2018-10-11T02:06:21.249Z,25.43
2018-10-11T02:09:44.227Z,25.57
2018-10-11T02:13:07.718Z,20.53
2018-10-11T02:17:33.749Z,23.83
2018-10-11T02:20:56.937Z,26.30
2018-10-11T02:24:20.815Z,25.27
2018-10-11T02:27:43.692Z,25.17
2018-10-11T02:31:06.694Z,25.53
2018-10-11T02:34:29.769Z,23.00
2018-10-11T02:37:52.938Z,23.40
2018-10-11T02:41:15.987Z,21.37
2018-10-11T02:44:39.176Z,23.53
2018-10-11T02:48:17.084Z,23.60
2018-10-11T02:51:41.111Z,26.57
2018-10-11T02:55:04.806Z,25.23
2018-10-11T02:58:38.684Z,25.73
2018-10-11T03:02:23.147Z,26.00
2018-10-11T03:05:46.730Z,24.20
2018-10-11T03:09:10.198Z,24.40
2018-10-11T03:12:33.534Z,23.77
2018-10-11T03:15:59.539Z,23.47
2018-10-11T03:19:22.806Z,24.53
2018-10-11T03:22:45.865Z,21.17
2018-10-11T03:26:09.249Z,22.90
2018-10-11T03:29:32.288Z,27.10
2018-10-11T03:33:00.749Z,34.80
2018-10-11T03:36:24.072Z,26.53
2018-10-11T03:39:47.286Z,26.00
2018-10-11T03:43:10.591Z,25.13
2018-10-11T03:46:33.910Z,24.60
2018-10-11T03:49:57.086Z,25.23
2018-10-11T03:53:20.285Z,28.23
2018-10-11T03:56:44.434Z,26.33
2018-10-11T04:00:07.614Z,27.60
2018-10-11T04:03:30.774Z,28.27
2018-10-11T04:06:53.944Z,24.87
2018-10-11T04:10:17.037Z,26.97
2018-10-11T04:13:40.393Z,22.80
2018-10-11T04:17:04.449Z,30.10
2018-10-11T04:20:27.434Z,29.57
2018-10-11T04:23:50.478Z,23.70
2018-10-11T04:27:13.654Z,23.53
2018-10-11T04:30:37.424Z,24.87
2018-10-11T04:34:00.515Z,26.33
2018-10-11T04:37:23.567Z,24.33
2018-10-11T04:40:46.948Z,27.17
2018-10-11T04:44:09.980Z,24.90
2018-10-11T04:47:33.142Z,24.07
2018-10-11T04:50:56.021Z,24.97
2018-10-11T04:54:18.923Z,22.90
2018-10-11T04:57:42.952Z,25.37
2018-10-11T05:01:06.266Z,26.93
2018-10-11T05:04:29.313Z,26.93
2018-10-11T05:07:52.475Z,25.83
2018-10-11T05:11:15.356Z,29.40
2018-10-11T05:14:39.349Z,27.07
2018-10-11T05:18:02.860Z,27.13
2018-10-11T05:21:25.736Z,26.70
2018-10-11T05:24:49.896Z,25.13
2018-10-11T05:28:13.064Z,28.90
2018-10-11T05:31:36.054Z,40.43
2018-10-11T05:34:59.213Z,34.33
2018-10-11T05:38:22.320Z,38.20
2018-10-11T05:41:45.665Z,30.73
2018-10-11T05:45:14.349Z,31.37
2018-10-11T05:48:37.491Z,28.67
2018-10-11T05:52:00.507Z,30.47
2018-10-11T05:55:23.456Z,27.80
2018-10-11T05:58:46.536Z,27.67
2018-10-11T06:02:10.147Z,30.03
2018-10-11T06:05:33.151Z,29.37
2018-10-11T06:08:56.238Z,27.13
2018-10-11T06:12:19.762Z,31.00
2018-10-11T06:15:42.929Z,27.83
2018-10-11T06:19:06.497Z,28.70
2018-10-11T06:22:30.548Z,29.23
2018-10-11T06:25:53.751Z,31.17
2018-10-11T06:29:16.819Z,27.53
2018-10-11T06:32:40.058Z,31.00
2018-10-11T06:36:03.519Z,24.10
2018-10-11T06:39:26.676Z,24.63
2018-10-11T06:42:49.884Z,22.67
2018-10-11T06:46:13.360Z,21.33
2018-10-11T06:49:36.557Z,21.03
2018-10-11T06:53:01.026Z,21.53
2018-10-11T06:56:24.349Z,21.60
2018-10-11T06:59:47.478Z,22.60
2018-10-11T07:03:10.637Z,31.90
2018-10-11T07:06:33.763Z,23.77
2018-10-11T07:09:56.838Z,25.50
2018-10-11T07:13:20.093Z,23.23
2018-10-11T07:16:43.239Z,26.70
2018-10-11T07:20:07.218Z,26.73
2018-10-11T07:23:30.313Z,26.00
2018-10-11T07:26:53.458Z,27.23
2018-10-11T07:30:16.589Z,25.60
2018-10-11T07:33:39.548Z,27.73
2018-10-11T07:37:02.641Z,27.77
2018-10-11T07:40:25.665Z,23.77
2018-10-11T07:43:48.723Z,25.47
2018-10-11T07:47:12.044Z,23.17
2018-10-11T07:50:34.885Z,24.20
2018-10-11T07:54:01.381Z,25.43
2018-10-11T07:57:25.412Z,25.20
2018-10-11T08:00:48.400Z,23.23
2018-10-11T08:04:11.515Z,24.77
2018-10-11T08:07:35.835Z,24.93
2018-10-11T08:10:58.936Z,23.80
2018-10-11T08:14:22.070Z,21.50
2018-10-11T08:17:45.502Z,23.13
2018-10-11T08:21:08.140Z,21.67
2018-10-11T08:24:31.062Z,21.50
2018-10-11T08:27:53.947Z,21.97
2018-10-11T08:31:16.760Z,20.83
2018-10-11T08:34:39.767Z,21.90
2018-10-11T08:38:02.995Z,22.27
2018-10-11T08:41:27.376Z,22.00
2018-10-11T08:44:50.820Z,21.97
2018-10-11T08:48:13.755Z,22.43
2018-10-11T08:51:36.723Z,22.23
2018-10-11T08:55:30.332Z,22.87
2018-10-11T08:58:53.320Z,22.60
2018-10-11T09:02:16.431Z,23.90
2018-10-11T09:05:40.111Z,21.90
2018-10-11T09:09:03.276Z,23.03
2018-10-11T09:12:26.054Z,22.17
2018-10-11T09:15:48.930Z,19.97
2018-10-11T09:19:11.817Z,21.27
2018-10-11T09:22:34.698Z,20.83
2018-10-11T09:25:57.600Z,20.23
2018-10-11T09:29:20.437Z,20.57
2018-10-11T09:32:43.189Z,19.43
2018-10-11T09:36:06.104Z,19.93
2018-10-11T09:39:29.066Z,19.87
2018-10-11T09:42:52.082Z,19.80
2018-10-11T09:46:15.258Z,18.37
2018-10-11T09:49:38.101Z,18.60
2018-10-11T09:53:01.036Z,18.27
2018-10-11T09:56:31.244Z,18.27
2018-10-11T09:59:54.516Z,17.60
2018-10-11T10:03:17.512Z,18.00
2018-10-11T10:06:40.596Z,18.07
2018-10-11T10:10:18.289Z,18.80
2018-10-11T10:13:41.269Z,18.80
2018-10-11T10:17:06.089Z,20.27
2018-10-11T10:20:29.021Z,18.63
2018-10-11T10:23:51.889Z,19.30
2018-10-11T10:27:14.802Z,18.87
2018-10-11T10:30:43.022Z,18.50
2018-10-11T10:34:06.055Z,17.60
2018-10-11T10:37:29.871Z,19.07
2018-10-11T10:40:52.885Z,17.13
2018-10-11T10:44:15.924Z,16.30
2018-10-11T10:47:38.872Z,17.67
2018-10-11T10:51:01.795Z,16.50
2018-10-11T10:54:27.653Z,16.07
2018-10-11T10:58:21.185Z,15.77
2018-10-11T11:01:44.116Z,14.97
2018-10-11T11:05:21.743Z,15.87
2018-10-11T11:08:44.881Z,15.30
2018-10-11T11:12:22.423Z,15.07
2018-10-11T11:15:45.340Z,17.20
2018-10-11T11:19:08.749Z,15.60
2018-10-11T11:22:31.792Z,15.80
2018-10-11T11:25:54.747Z,15.90
2018-10-11T11:29:17.596Z,14.40
2018-10-11T11:32:41.092Z,14.57
2018-10-11T11:36:03.968Z,15.23
2018-10-11T11:39:26.973Z,13.07
2018-10-11T11:42:50.040Z,14.23
2018-10-11T11:46:13.087Z,14.13
2018-10-11T11:49:35.996Z,13.33
2018-10-11T11:52:58.859Z,13.57
2018-10-11T11:56:21.748Z,14.20
2018-10-11T11:59:44.635Z,14.30
2018-10-11T12:03:07.470Z,13.10
2018-10-11T12:06:30.245Z,14.03
2018-10-11T12:09:53.028Z,13.83
2018-10-11T12:13:15.982Z,12.73
2018-10-11T12:16:39.144Z,13.37
2018-10-11T12:20:01.985Z,12.77
2018-10-11T12:23:25.175Z,13.07
2018-10-11T12:26:48.203Z,12.60
2018-10-11T12:30:11.203Z,11.00
2018-10-11T12:33:34.638Z,10.60
2018-10-11T12:36:57.710Z,20.27
2018-10-11T12:40:20.817Z,12.67
2018-10-11T12:43:43.805Z,10.83
2018-10-11T12:47:06.811Z,12.47
2018-10-11T12:50:29.827Z,10.73
2018-10-11T12:53:53.023Z,11.93
2018-10-11T12:57:20.845Z,10.70
2018-10-11T13:00:40.406Z,10.60
2018-10-11T13:04:03.203Z,9.00
2018-10-11T13:07:25.604Z,9.10
2018-10-11T13:10:48.293Z,11.13
2018-10-11T13:14:11.384Z,11.00
2018-10-11T13:17:40.131Z,10.33
2018-10-11T13:20:57.314Z,10.80
2018-10-11T13:24:20.961Z,11.13
2018-10-11T13:27:46.139Z,11.23
2018-10-11T13:31:09.553Z,10.63
2018-10-11T13:34:32.729Z,11.70
2018-10-11T13:37:55.847Z,11.50
2018-10-11T13:41:18.998Z,10.80
2018-10-11T13:44:41.674Z,10.47
2018-10-11T13:48:04.457Z,10.20
2018-10-11T13:55:11.114Z,11.00
2018-10-11T13:58:29.498Z,10.17
2018-10-11T14:01:53.680Z,11.00
2018-10-11T14:05:21.962Z,11.00
2018-10-11T14:08:46.110Z,10.37
2018-10-11T14:12:09.110Z,11.73
2018-10-11T14:19:58.189Z,12.83
2018-10-11T14:23:21.229Z,11.33
2018-10-11T14:26:44.218Z,12.70
2018-10-11T14:30:07.833Z,13.00
2018-10-11T14:33:30.923Z,13.47
2018-10-11T14:36:53.801Z,11.87
2018-10-11T14:40:16.809Z,13.10
2018-10-11T14:43:39.821Z,12.43
2018-10-11T14:47:02.711Z,12.07
2018-10-11T14:51:28.736Z,11.87
2018-10-11T14:54:53.325Z,11.70
2018-10-11T14:58:16.597Z,11.90
2018-10-11T15:01:39.597Z,11.83
2018-10-11T15:05:03.653Z,13.03
2018-10-11T15:08:26.670Z,12.40
2018-10-11T15:11:51.663Z,12.70
2018-10-11T15:15:16.100Z,12.60
2018-10-11T15:18:39.264Z,12.03
2018-10-11T15:22:04.297Z,12.57
2018-10-11T15:25:26.788Z,13.80
2018-10-11T15:28:49.379Z,12.63
2018-10-11T15:32:12.412Z,12.27
2018-10-11T15:35:35.373Z,11.87
2018-10-11T15:38:58.531Z,11.80
2018-10-11T15:42:21.737Z,11.73
2018-10-11T15:45:44.664Z,12.07
2018-10-11T15:49:08.194Z,13.07
2018-10-11T15:52:31.732Z,13.03
2018-10-11T15:55:54.745Z,13.17
2018-10-11T15:59:17.491Z,12.90
2018-10-11T16:02:40.462Z,13.33
2018-10-11T16:06:03.430Z,13.23
2018-10-11T16:09:26.543Z,13.30
2018-10-11T16:12:49.402Z,13.63
2018-10-11T16:16:12.236Z,12.87
2018-10-11T16:19:35.200Z,13.63
2018-10-11T16:22:58.154Z,13.03
2018-10-11T16:26:21.117Z,13.93
2018-10-11T16:29:44.201Z,12.90
2018-10-11T16:33:07.160Z,12.97
2018-10-11T16:37:33.287Z,13.20
2018-10-11T16:40:55.772Z,12.10
2018-10-11T16:44:18.352Z,12.30
2018-10-11T16:47:41.113Z,12.63
2018-10-11T16:51:04.187Z,13.30
2018-10-11T16:54:26.915Z,14.30
2018-10-11T16:57:49.877Z,13.20
2018-10-11T17:01:12.682Z,13.73
2018-10-11T17:04:35.418Z,13.50
2018-10-11T17:07:58.544Z,13.23
2018-10-11T17:11:21.348Z,13.67
2018-10-11T17:14:44.557Z,16.00
2018-10-11T17:18:07.557Z,17.37
2018-10-11T17:21:34.419Z,19.00
2018-10-11T17:24:57.502Z,16.13
2018-10-11T17:28:21.358Z,15.23
2018-10-11T17:31:44.113Z,15.63
2018-10-11T17:35:08.659Z,14.73
2018-10-11T17:38:32.476Z,15.37
2018-10-11T17:41:55.652Z,14.70
2018-10-11T17:45:18.661Z,14.40
2018-10-11T17:49:44.530Z,18.23
2018-10-11T17:53:07.492Z,15.40
2018-10-11T17:56:30.282Z,14.27
2018-10-11T17:59:53.959Z,15.53
2018-10-11T18:03:19.148Z,18.83
2018-10-11T18:06:42.854Z,15.53
2018-10-11T18:10:07.266Z,17.77
2018-10-11T18:13:31.853Z,15.77
2018-10-11T18:16:54.935Z,16.83
2018-10-11T18:20:18.937Z,15.77
2018-10-11T18:23:43.852Z,15.00
2018-10-11T18:27:06.722Z,15.83
2018-10-11T18:30:31.640Z,14.50
2018-10-11T18:33:54.928Z,16.97
2018-10-11T18:37:18.698Z,17.07
2018-10-11T18:40:41.692Z,15.90
2018-10-11T18:44:04.609Z,15.97
2018-10-11T18:47:28.683Z,17.40
2018-10-11T18:50:51.627Z,17.63
2018-10-11T18:54:14.525Z,16.93
2018-10-11T18:57:38.252Z,16.50
2018-10-11T19:01:01.261Z,16.60
2018-10-11T19:04:24.273Z,18.90
2018-10-11T19:07:47.176Z,15.20
2018-10-11T19:11:10.770Z,16.40
2018-10-11T19:14:33.695Z,16.40
2018-10-11T19:17:57.556Z,17.97
2018-10-11T19:21:20.362Z,18.07
2018-10-11T19:24:43.309Z,16.43
2018-10-11T19:28:06.358Z,17.77
2018-10-11T19:31:37.681Z,16.37
2018-10-11T19:35:00.533Z,19.23
2018-10-11T19:38:23.472Z,21.20
2018-10-11T19:42:49.246Z,18.47
2018-10-11T19:46:12.459Z,20.30
2018-10-11T19:50:38.418Z,25.53
2018-10-11T19:54:01.058Z,20.73
2018-10-11T19:57:23.750Z,20.87
2018-10-11T20:00:46.565Z,20.17
2018-10-11T20:04:09.316Z,20.30
2018-10-11T20:07:32.576Z,21.53
2018-10-11T20:10:55.455Z,20.07
2018-10-11T20:14:19.926Z,20.90
2018-10-11T20:17:44.635Z,20.60
2018-10-11T20:21:08.187Z,21.37
2018-10-11T20:24:31.511Z,18.87
2018-10-11T20:27:54.404Z,18.60
2018-10-11T20:31:17.575Z,19.07
2018-10-11T20:34:40.564Z,19.23
2018-10-11T20:38:03.403Z,19.97
2018-10-11T20:41:26.325Z,19.13
2018-10-11T20:44:49.406Z,19.07
2018-10-11T20:48:12.358Z,18.83
2018-10-11T20:51:36.091Z,18.93
2018-10-11T20:54:59.020Z,19.07
2018-10-11T21:01:58.179Z,20.47
2018-10-11T21:05:21.007Z,18.90
2018-10-11T21:08:43.840Z,19.83
2018-10-11T21:12:06.755Z,20.57
2018-10-11T21:15:29.742Z,20.83
2018-10-11T21:18:52.498Z,20.93
2018-10-11T21:22:17.048Z,19.97
2018-10-11T21:25:41.373Z,21.03
2018-10-11T21:29:06.317Z,18.63
2018-10-11T21:32:44.053Z,18.47
2018-10-11T21:36:06.928Z,21.30
2018-10-11T21:39:29.730Z,19.53
2018-10-11T21:42:52.597Z,26.33
2018-10-11T21:46:15.482Z,24.17
2018-10-11T21:49:38.179Z,23.50
2018-10-11T21:53:00.965Z,23.97
2018-10-11T21:56:24.098Z,23.97
2018-10-11T21:59:46.836Z,24.00
2018-10-11T22:03:09.783Z,23.77
2018-10-11T22:06:33.581Z,23.13
2018-10-11T22:09:56.663Z,23.83
2018-10-11T22:13:20.563Z,25.23
2018-10-11T22:16:43.506Z,23.80
2018-10-11T22:20:08.406Z,22.90
2018-10-11T22:23:36.204Z,23.63
2018-10-11T22:27:02.780Z,23.37
2018-10-11T22:30:26.894Z,22.03
2018-10-11T22:33:49.867Z,22.13
2018-10-11T22:37:12.805Z,23.10
2018-10-11T22:40:35.561Z,21.87
2018-10-11T22:43:58.746Z,21.90
2018-10-11T22:47:21.505Z,23.57
2018-10-11T22:51:47.334Z,25.00
2018-10-11T22:55:10.611Z,21.77
2018-10-11T22:58:33.817Z,25.13
2018-10-11T23:01:57.323Z,23.33
2018-10-11T23:05:52.273Z,24.30
2018-10-11T23:09:15.305Z,22.33
2018-10-11T23:12:38.488Z,23.50
2018-10-11T23:16:01.642Z,23.77
2018-10-11T23:19:24.801Z,22.30
2018-10-11T23:22:47.828Z,25.70
2018-10-11T23:26:10.780Z,23.87
2018-10-11T23:29:34.131Z,24.73
2018-10-11T23:32:56.999Z,22.93
2018-10-11T23:36:20.062Z,23.87
2018-10-11T23:39:44.019Z,23.17
2018-10-11T23:43:08.747Z,26.47
2018-10-11T23:46:35.924Z,23.63
2018-10-11T23:49:58.955Z,24.17
2018-10-11T23:53:22.043Z,24.87
2018-10-11T23:56:44.927Z,24.90
